Jade — 9HVS8 — position and weather

sailwx.info

Track history (hours):
 
Tides and Currents Weather Stations Pressure Air Temp Water Temp Dewpoint Dewpoint Depression Visibility Wind Speed Wind Dir Waves Ship Positions

Jade

Last reported at 2015-May-29 04:33 UTC. Time now 2015-May-29 06:14 UTC.
Position N 44°11' E 008°47'.

Length 176 m; draft 10 m.

Type: Ship (hazmat cat C). MMSI: 256491000.

Date/timePositionNaut miles runAvg speedWind from/ knotsBaromVisibWave heightAir tempDewpointWater temp
2015-May-29 04:33N 44°11' E 008°47'0 0.2
2015-May-29 03:33N 44°11' E 008°47'0 0.3
2015-May-29 02:33N 44°11' E 008°47'0 0.3
2015-May-29 01:33N 44°11' E 008°48'0 0.4
2015-May-29 00:33N 44°10' E 008°48'0 0.4
2015-May-28 23:33N 44°10' E 008°48'0 0.5
2015-May-28 22:33N 44°10' E 008°49'0 0.4
2015-May-28 21:33N 44°10' E 008°49'0 0.5
2015-May-28 20:33N 44°10' E 008°50'1 0.6
2015-May-28 19:33N 44°10' E 008°51'1 0.5
2015-May-28 18:33N 44°10' E 008°52'0 0.4
2015-May-28 17:33N 44°10' E 008°52'0 0.4
2015-May-28 16:33N 44°11' E 008°52'4 3.9
2015-May-28 15:33N 44°15' E 008°51'8 7.8
2015-May-28 14:33N 44°22' E 008°50'2 2.1
2015-May-28 13:33N 44°20' E 008°50'7 7.4
2015-May-28 12:33N 44°13' E 008°49'0 0.2
2015-May-28 11:33N 44°13' E 008°49'0 0.3
2015-May-28 10:33N 44°13' E 008°49'0 0.4
2015-May-28 09:33N 44°12' E 008°50'0 0.4
2015-May-28 08:33N 44°12' E 008°50'0 0.4
2015-May-28 07:33N 44°12' E 008°50'0 0.4
2015-May-28 06:33N 44°12' E 008°51'1 0.7
2015-May-28 05:33N 44°11' E 008°51'5 5.4
2015-May-28 04:33N 44°11' E 008°43'1 0.7
2015-May-28 03:33N 44°11' E 008°44'1 0.7
2015-May-28 02:33N 44°11' E 008°45'1 0.7
2015-May-28 01:33N 44°11' E 008°46'1 0.6
2015-May-28 00:33N 44°11' E 008°47'1 0.6
2015-May-27 23:33N 44°11' E 008°48'0 0.5
2015-May-27 22:33N 44°11' E 008°49'2 1.8
2015-May-27 21:33N 44°12' E 008°48'1 1.3
2015-May-27 20:33N 44°13' E 008°46'0 0.2
2015-May-27 19:33N 44°13' E 008°46'0 0.3
2015-May-27 18:33N 44°13' E 008°46'0 0.4
2015-May-27 17:33N 44°13' E 008°46'0 0.3
2015-May-27 16:33N 44°12' E 008°45'0 0.3
2015-May-27 15:33N 44°12' E 008°45'0 0.2
2015-May-27 14:33N 44°12' E 008°45'0 0.3
2015-May-27 13:33N 44°11' E 008°45'0 0.2
2015-May-27 12:33N 44°11' E 008°45'0 0.2
2015-May-27 11:33N 44°11' E 008°46'0 0.2
2015-May-27 10:33N 44°11' E 008°46'0 0.3
2015-May-27 09:33N 44°11' E 008°46'0 0.4
2015-May-27 08:33N 44°11' E 008°47'1 0.6
2015-May-27 07:33N 44°11' E 008°48'1 0.6
2015-May-27 06:33N 44°11' E 008°49'4 3.8
2015-May-27 05:33N 44°15' E 008°49'2 2.4
2015-May-27 04:33N 44°16' E 008°52'1211.9
2015-May-27 03:33N 44°04' E 008°55'1313.2
2015-May-27 02:33N 43°51' E 008°60'1313.3
2015-May-27 01:33N 43°40' E 009°08'1313.4
2015-May-27 00:33N 43°28' E 009°18'1313.3
2015-May-26 23:33N 43°17' E 009°28'1313.3
2015-May-26 22:33N 43°06' E 009°37'1413.7
2015-May-26 21:33N 42°52' E 009°43'1413.7
2015-May-26 20:33N 42°39' E 009°47'31213.5
2015-May-25 21:26N 39°02' E 014°44'1213.8
2015-May-25 20:33N 38°54' E 014°56'1313.4
2015-May-25 19:33N 38°45' E 015°09'1413.3
2015-May-25 18:32N 38°37' E 015°22'1413.6
2015-May-25 17:33N 38°28' E 015°36'1212.2
2015-May-25 16:33N 38°17' E 015°43'1111.2
2015-May-25 15:34N 38°07' E 015°36'1312.5
2015-May-25 14:33N 37°55' E 015°37'1212.4
2015-May-25 13:33N 37°47' E 015°50'1813.4
2015-May-25 12:13N 37°42' E 016°12'  
2015-May-22 20:23N 36°54' E 023°36'1213.8
2015-May-22 19:31N 37°04' E 023°44'3214.0
2015-May-22 17:12N 37°31' E 024°06'1513.6
2015-May-22 16:06N 37°44' E 024°16'713.7
2015-May-22 15:33N 37°48' E 024°24'  
Track history (hours):
 
Tides and Currents Weather Stations Pressure Air Temp Water Temp Dewpoint Dewpoint Depression Visibility Wind Speed Wind Dir Waves Ship Positions

Jade

Last reported at 2015-May-29 04:33 UTC. Time now 2015-May-29 06:14 UTC.
Position N 44°11' E 008°47'.

Length 176 m; draft 10 m.

Type: Ship (hazmat cat C). MMSI: 256491000.

Date/timePositionNaut miles runAvg speedWind from/ knotsBaromVisibWave heightAir tempDewpointWater temp
2015-May-29 04:33N 44°11' E 008°47'0 0.2
2015-May-29 03:33N 44°11' E 008°47'0 0.3
2015-May-29 02:33N 44°11' E 008°47'0 0.3
2015-May-29 01:33N 44°11' E 008°48'0 0.4
2015-May-29 00:33N 44°10' E 008°48'0 0.4
2015-May-28 23:33N 44°10' E 008°48'0 0.5
2015-May-28 22:33N 44°10' E 008°49'0 0.4
2015-May-28 21:33N 44°10' E 008°49'0 0.5
2015-May-28 20:33N 44°10' E 008°50'1 0.6
2015-May-28 19:33N 44°10' E 008°51'1 0.5
2015-May-28 18:33N 44°10' E 008°52'0 0.4
2015-May-28 17:33N 44°10' E 008°52'0 0.4
2015-May-28 16:33N 44°11' E 008°52'4 3.9
2015-May-28 15:33N 44°15' E 008°51'8 7.8
2015-May-28 14:33N 44°22' E 008°50'2 2.1
2015-May-28 13:33N 44°20' E 008°50'7 7.4
2015-May-28 12:33N 44°13' E 008°49'0 0.2
2015-May-28 11:33N 44°13' E 008°49'0 0.3
2015-May-28 10:33N 44°13' E 008°49'0 0.4
2015-May-28 09:33N 44°12' E 008°50'0 0.4
2015-May-28 08:33N 44°12' E 008°50'0 0.4
2015-May-28 07:33N 44°12' E 008°50'0 0.4
2015-May-28 06:33N 44°12' E 008°51'1 0.7
2015-May-28 05:33N 44°11' E 008°51'5 5.4
2015-May-28 04:33N 44°11' E 008°43'1 0.7
2015-May-28 03:33N 44°11' E 008°44'1 0.7
2015-May-28 02:33N 44°11' E 008°45'1 0.7
2015-May-28 01:33N 44°11' E 008°46'1 0.6
2015-May-28 00:33N 44°11' E 008°47'1 0.6
2015-May-27 23:33N 44°11' E 008°48'0 0.5
2015-May-27 22:33N 44°11' E 008°49'2 1.8
2015-May-27 21:33N 44°12' E 008°48'1 1.3
2015-May-27 20:33N 44°13' E 008°46'0 0.2
2015-May-27 19:33N 44°13' E 008°46'0 0.3
2015-May-27 18:33N 44°13' E 008°46'0 0.4
2015-May-27 17:33N 44°13' E 008°46'0 0.3
2015-May-27 16:33N 44°12' E 008°45'0 0.3
2015-May-27 15:33N 44°12' E 008°45'0 0.2
2015-May-27 14:33N 44°12' E 008°45'0 0.3
2015-May-27 13:33N 44°11' E 008°45'0 0.2
2015-May-27 12:33N 44°11' E 008°45'0 0.2
2015-May-27 11:33N 44°11' E 008°46'0 0.2
2015-May-27 10:33N 44°11' E 008°46'0 0.3
2015-May-27 09:33N 44°11' E 008°46'0 0.4
2015-May-27 08:33N 44°11' E 008°47'1 0.6
2015-May-27 07:33N 44°11' E 008°48'1 0.6
2015-May-27 06:33N 44°11' E 008°49'4 3.8
2015-May-27 05:33N 44°15' E 008°49'2 2.4
2015-May-27 04:33N 44°16' E 008°52'1211.9
2015-May-27 03:33N 44°04' E 008°55'1313.2
2015-May-27 02:33N 43°51' E 008°60'1313.3
2015-May-27 01:33N 43°40' E 009°08'1313.4
2015-May-27 00:33N 43°28' E 009°18'1313.3
2015-May-26 23:33N 43°17' E 009°28'1313.3
2015-May-26 22:33N 43°06' E 009°37'1413.7
2015-May-26 21:33N 42°52' E 009°43'1413.7
2015-May-26 20:33N 42°39' E 009°47'31213.5
2015-May-25 21:26N 39°02' E 014°44'1213.8
2015-May-25 20:33N 38°54' E 014°56'1313.4
2015-May-25 19:33N 38°45' E 015°09'1413.3
2015-May-25 18:32N 38°37' E 015°22'1413.6
2015-May-25 17:33N 38°28' E 015°36'1212.2
2015-May-25 16:33N 38°17' E 015°43'1111.2
2015-May-25 15:34N 38°07' E 015°36'1312.5
2015-May-25 14:33N 37°55' E 015°37'1212.4
2015-May-25 13:33N 37°47' E 015°50'1813.4
2015-May-25 12:13N 37°42' E 016°12'  
2015-May-22 20:23N 36°54' E 023°36'1213.8
2015-May-22 19:31N 37°04' E 023°44'3214.0
2015-May-22 17:12N 37°31' E 024°06'1513.6
2015-May-22 16:06N 37°44' E 024°16'713.7
2015-May-22 15:33N 37°48' E 024°24'  

Dump ship's entire track history